Time;durP1;ratioP1;P1;durP2;ratioP2;P2;SDS_P1;SDS_P2;PMS_P1;PMS_P2;Temp;Humidity;BMP_temperature;BMP_pressure;BME280_temperature;BME280_humidity;BME280_pressure;Samples;Min_cycle;Max_cycle;Signal;HPM_P1;HPM_P2
2023/11/18 00:00:50;;;;;;;32.33;20.30;;;7.20;99.90;;;;;;6269847;28;20049;-80
2023/11/18 00:03:55;;;;;;;47.63;23.42;;;7.20;99.90;;;;;;6269487;28;20052;-77
2023/11/18 00:06:58;;;;;;;43.33;22.00;;;7.20;99.90;;;;;;6268314;28;20072;-78
2023/11/18 00:10:00;;;;;;;34.38;19.98;;;7.20;99.90;;;;;;6276663;28;20069;-80
2023/11/18 00:13:03;;;;;;;34.22;22.33;;;7.20;99.90;;;;;;6269778;28;20052;-79
2023/11/18 00:16:06;;;;;;;38.72;22.15;;;7.20;99.90;;;;;;6271531;28;20060;-79
2023/11/18 00:19:09;;;;;;;38.70;21.50;;;7.20;99.90;;;;;;6265892;28;20044;-77
2023/11/18 00:22:11;;;;;;;33.78;20.10;;;7.20;99.90;;;;;;6266708;28;20041;-76
2023/11/18 00:25:14;;;;;;;42.03;22.33;;;7.10;99.90;;;;;;6265694;28;20631;-77
2023/11/18 00:28:15;;;;;;;36.95;22.33;;;7.20;99.90;;;;;;6266424;28;20049;-78
2023/11/18 00:31:17;;;;;;;38.78;22.73;;;7.20;99.90;;;;;;6265156;28;20052;-80
2023/11/18 00:34:20;;;;;;;39.63;21.70;;;7.20;99.90;;;;;;6266837;28;20041;-79
2023/11/18 00:37:22;;;;;;;31.52;20.30;;;7.20;99.90;;;;;;6265923;28;20053;-79
2023/11/18 00:40:24;;;;;;;33.15;19.85;;;7.20;99.90;;;;;;6265367;28;20049;-77
2023/11/18 00:43:26;;;;;;;34.13;19.45;;;7.20;99.90;;;;;;6265116;28;20049;-79
2023/11/18 00:46:28;;;;;;;36.85;20.75;;;7.20;99.90;;;;;;6265435;28;20053;-79
2023/11/18 00:49:31;;;;;;;29.63;19.98;;;7.20;99.90;;;;;;6265046;28;20060;-80
2023/11/18 00:52:32;;;;;;;34.28;20.27;;;7.20;99.90;;;;;;6268810;28;20061;-80
2023/11/18 00:55:34;;;;;;;37.45;20.38;;;7.20;99.90;;;;;;6270674;28;20049;-79
2023/11/18 00:58:39;;;;;;;30.58;19.27;;;7.10;99.90;;;;;;6265551;28;20061;-78
2023/11/18 01:01:41;;;;;;;40.90;19.73;;;7.10;99.90;;;;;;6275230;28;20084;-77
2023/11/18 01:04:45;;;;;;;34.22;19.00;;;7.00;99.90;;;;;;6286452;28;20486;-81
2023/11/18 01:07:47;;;;;;;30.90;18.55;;;7.10;99.90;;;;;;6270145;28;20072;-80
2023/11/18 01:10:49;;;;;;;25.95;17.27;;;7.10;99.90;;;;;;6266457;28;20049;-79
2023/11/18 01:13:51;;;;;;;26.60;17.00;;;7.10;99.90;;;;;;6266281;28;20414;-80
2023/11/18 01:16:52;;;;;;;25.45;16.05;;;7.10;99.90;;;;;;6249115;28;20069;-77
2023/11/18 01:19:56;;;;;;;26.83;16.50;;;7.10;99.90;;;;;;6238107;28;20049;-79
2023/11/18 01:22:57;;;;;;;26.85;16.50;;;7.00;99.90;;;;;;6240489;28;20518;-79
2023/11/18 01:26:00;;;;;;;23.80;15.68;;;7.00;99.90;;;;;;6268613;28;20466;-79
2023/11/18 01:29:01;;;;;;;24.75;16.40;;;7.00;99.90;;;;;;6264456;28;20057;-79
2023/11/18 01:32:08;;;;;;;23.15;15.45;;;7.00;99.90;;;;;;6263021;28;20057;-78
2023/11/18 01:35:12;;;;;;;25.13;16.00;;;6.90;99.90;;;;;;6262810;28;20049;-80
2023/11/18 01:38:13;;;;;;;23.05;14.82;;;6.80;99.90;;;;;;6263734;28;20057;-79
2023/11/18 01:41:15;;;;;;;23.65;14.98;;;6.80;99.90;;;;;;6262332;28;20053;-79
2023/11/18 01:44:19;;;;;;;21.25;14.25;;;6.70;99.90;;;;;;6262993;28;20067;-80
2023/11/18 01:47:21;;;;;;;23.88;14.55;;;6.70;99.90;;;;;;6263832;28;20060;-80
2023/11/18 01:50:24;;;;;;;25.70;15.32;;;6.70;99.90;;;;;;6269191;28;20205;-79
2023/11/18 01:53:27;;;;;;;19.17;14.18;;;6.60;99.90;;;;;;6263760;28;20429;-80
2023/11/18 01:56:29;;;;;;;26.20;15.35;;;6.60;99.90;;;;;;6262302;28;20049;-79
2023/11/18 01:59:30;;;;;;;23.40;14.18;;;6.50;99.90;;;;;;6263627;28;20052;-79
2023/11/18 02:02:34;;;;;;;21.17;15.75;;;6.50;99.90;;;;;;6269278;28;20212;-77
2023/11/18 02:05:38;;;;;;;23.27;15.45;;;6.40;99.90;;;;;;6262660;28;20060;-79
2023/11/18 02:08:41;;;;;;;22.35;15.63;;;6.40;99.90;;;;;;6272357;28;20060;-79
2023/11/18 02:11:49;;;;;;;25.95;16.80;;;6.50;99.90;;;;;;6264379;28;20194;-78
2023/11/18 02:14:53;;;;;;;26.30;16.90;;;6.50;99.90;;;;;;6279031;28;20604;-78
2023/11/18 02:17:58;;;;;;;30.52;17.55;;;6.60;99.90;;;;;;6279804;28;20494;-79
2023/11/18 02:21:01;;;;;;;30.90;18.98;;;6.70;99.90;;;;;;6267916;28;20385;-80
2023/11/18 02:24:04;;;;;;;31.85;18.40;;;6.70;99.90;;;;;;6267459;28;20041;-78
2023/11/18 02:27:11;;;;;;;24.20;18.02;;;6.80;99.90;;;;;;6289417;28;20186;-78
2023/11/18 02:30:16;;;;;;;30.20;19.80;;;6.80;99.90;;;;;;6294711;28;20469;-78
2023/11/18 02:33:23;;;;;;;34.03;20.20;;;6.90;99.90;;;;;;6276602;28;20060;-78
2023/11/18 02:36:35;;;;;;;31.45;18.77;;;6.90;99.90;;;;;;6269031;28;20048;-78
2023/11/18 02:39:43;;;;;;;28.52;20.02;;;6.90;99.90;;;;;;6269459;28;20139;-78
2023/11/18 02:42:48;;;;;;;28.65;18.48;;;7.00;99.90;;;;;;6269657;28;20071;-78
2023/11/18 02:45:51;;;;;;;28.70;19.42;;;7.00;99.90;;;;;;6265181;28;20044;-78
2023/11/18 02:48:53;;;;;;;28.52;19.15;;;7.00;99.90;;;;;;6268317;28;20054;-79
2023/11/18 02:51:55;;;;;;;30.52;19.00;;;7.00;99.90;;;;;;6246266;28;20049;-78
2023/11/18 02:54:57;;;;;;;30.77;20.00;;;7.00;99.90;;;;;;6246323;28;20049;-80
2023/11/18 02:58:00;;;;;;;32.25;19.15;;;7.00;99.90;;;;;;6256850;28;20049;-78
2023/11/18 03:01:02;;;;;;;34.65;19.45;;;7.00;99.90;;;;;;6263750;28;20053;-80
2023/11/18 03:04:06;;;;;;;33.47;21.05;;;7.00;99.90;;;;;;6262873;28;20045;-80
2023/11/18 03:07:08;;;;;;;31.33;18.83;;;7.00;99.90;;;;;;6272190;28;20045;-79
2023/11/18 03:10:12;;;;;;;33.13;19.95;;;7.00;99.90;;;;;;6277469;28;20041;-81
2023/11/18 03:13:15;;;;;;;31.23;18.58;;;7.00;99.90;;;;;;6284199;28;20536;-80
2023/11/18 03:16:17;;;;;;;29.88;20.08;;;7.10;99.90;;;;;;6267256;28;20056;-80
2023/11/18 03:19:19;;;;;;;44.28;20.80;;;7.00;99.90;;;;;;6268760;28;20449;-80
2023/11/18 03:22:20;;;;;;;32.10;19.63;;;7.00;99.90;;;;;;6278233;28;20439;-81
2023/11/18 03:25:23;;;;;;;32.70;20.02;;;7.00;99.90;;;;;;6277211;28;20045;-80
2023/11/18 03:28:26;;;;;;;36.40;18.65;;;6.90;99.90;;;;;;6276005;28;20128;-80
2023/11/18 03:31:28;;;;;;;32.35;20.42;;;6.80;99.90;;;;;;6253638;28;20464;-79
2023/11/18 03:34:30;;;;;;;35.50;21.52;;;6.70;99.90;;;;;;6269624;28;20059;-80
2023/11/18 03:37:32;;;;;;;36.08;20.30;;;6.60;99.90;;;;;;6262666;28;20060;-79
2023/11/18 03:40:35;;;;;;;34.53;21.10;;;6.50;99.90;;;;;;6261688;28;20057;-79
2023/11/18 03:43:38;;;;;;;30.92;17.65;;;6.50;99.90;;;;;;6262408;28;20072;-78
2023/11/18 03:46:40;;;;;;;34.85;20.45;;;6.40;99.90;;;;;;6271119;28;20421;-79
2023/11/18 03:49:42;;;;;;;32.08;21.00;;;6.40;99.90;;;;;;6282132;28;20106;-79
2023/11/18 03:52:44;;;;;;;36.08;20.10;;;6.30;99.90;;;;;;6280424;28;20053;-79
2023/11/18 03:55:46;;;;;;;40.63;21.65;;;6.30;99.90;;;;;;6299333;28;20052;-78
2023/11/18 03:58:49;;;;;;;40.65;20.13;;;6.20;99.90;;;;;;6298715;28;20045;-79
2023/11/18 04:01:51;;;;;;;38.65;21.27;;;6.20;99.90;;;;;;6281768;28;20048;-78
2023/11/18 04:04:53;;;;;;;35.60;21.65;;;6.10;99.90;;;;;;6260106;28;20097;-80
2023/11/18 04:07:54;;;;;;;39.75;21.35;;;6.10;99.90;;;;;;6255859;28;20083;-78
2023/11/18 04:10:56;;;;;;;42.55;21.70;;;6.00;99.90;;;;;;6275307;28;20053;-80
2023/11/18 04:13:59;;;;;;;37.80;21.55;;;6.00;99.90;;;;;;6275000;28;20053;-80
2023/11/18 04:17:01;;;;;;;50.97;21.85;;;6.00;99.90;;;;;;6275517;28;20052;-78
2023/11/18 04:20:05;;;;;;;41.40;20.90;;;5.90;99.90;;;;;;6277212;28;20057;-80
2023/11/18 04:23:07;;;;;;;38.42;19.80;;;5.90;99.90;;;;;;6254172;28;20052;-80
2023/11/18 04:26:09;;;;;;;43.42;21.30;;;5.80;99.90;;;;;;6253623;28;20586;-81
2023/11/18 04:29:12;;;;;;;49.25;23.85;;;5.80;99.90;;;;;;6270351;28;20043;-81
2023/11/18 04:32:14;;;;;;;51.75;22.38;;;5.70;99.90;;;;;;6277385;28;20056;-82
2023/11/18 04:35:17;;;;;;;41.08;20.20;;;5.60;99.90;;;;;;6276148;28;20520;-80
2023/11/18 04:38:18;;;;;;;49.85;21.67;;;5.50;99.90;;;;;;6277936;28;20109;-80
2023/11/18 04:41:20;;;;;;;49.75;23.13;;;5.50;99.90;;;;;;6276377;28;20055;-80
2023/11/18 04:44:23;;;;;;;56.38;25.30;;;5.50;99.90;;;;;;6276439;28;20045;-78
2023/11/18 04:47:26;;;;;;;57.17;26.98;;;5.50;99.90;;;;;;6283542;28;20410;-80
2023/11/18 04:50:28;;;;;;;51.05;23.40;;;5.50;99.90;;;;;;6299471;28;20044;-79
2023/11/18 04:53:31;;;;;;;50.88;24.05;;;5.60;99.90;;;;;;6292470;28;20109;-79
2023/11/18 04:56:35;;;;;;;60.13;27.30;;;5.60;99.90;;;;;;6293059;28;20131;-81
2023/11/18 04:59:38;;;;;;;51.72;24.38;;;5.70;99.90;;;;;;6292787;28;20052;-80
2023/11/18 05:02:40;;;;;;;47.75;24.23;;;5.70;99.90;;;;;;6280843;28;20053;-81
2023/11/18 05:05:42;;;;;;;59.47;28.25;;;5.70;99.90;;;;;;6275298;28;20052;-81
2023/11/18 05:08:43;;;;;;;52.97;25.38;;;5.70;99.90;;;;;;6262244;28;20053;-81
2023/11/18 05:11:45;;;;;;;60.15;26.83;;;5.80;99.90;;;;;;6256514;28;20517;-79
2023/11/18 05:14:49;;;;;;;59.15;29.20;;;5.70;99.90;;;;;;6275869;28;20059;-81
2023/11/18 05:17:51;;;;;;;67.78;27.33;;;5.70;99.90;;;;;;6275768;28;20055;-81
2023/11/18 05:20:54;;;;;;;63.60;28.98;;;5.80;99.90;;;;;;6275904;28;20045;-81
2023/11/18 05:23:56;;;;;;;58.50;28.70;;;5.80;99.90;;;;;;6294232;28;20070;-81
2023/11/18 05:27:01;;;;;;;74.80;31.17;;;5.80;99.90;;;;;;6260718;28;20049;-81
2023/11/18 05:30:05;;;;;;;68.80;29.30;;;5.80;99.90;;;;;;6251756;28;20045;-80
2023/11/18 05:33:07;;;;;;;65.70;29.13;;;5.90;99.90;;;;;;6267618;28;20421;-79
2023/11/18 05:36:11;;;;;;;63.90;29.50;;;5.90;99.90;;;;;;6266649;28;20048;-79
2023/11/18 05:39:14;;;;;;;58.25;29.58;;;5.90;99.90;;;;;;6251409;28;20047;-79
2023/11/18 05:42:16;;;;;;;56.60;27.20;;;5.90;99.90;;;;;;6276129;28;20049;-80
2023/11/18 05:45:27;;;;;;;61.42;30.00;;;5.90;99.90;;;;;;6286764;28;20045;-76
2023/11/18 05:48:29;;;;;;;62.08;29.17;;;5.90;99.90;;;;;;6295004;28;20051;-78
2023/11/18 05:51:31;;;;;;;66.60;28.02;;;5.90;99.90;;;;;;6277538;28;20049;-81
2023/11/18 05:54:33;;;;;;;60.50;28.65;;;5.90;99.90;;;;;;6277922;28;20522;-79
2023/11/18 05:57:35;;;;;;;58.53;28.20;;;6.00;99.90;;;;;;6283710;28;20045;-81
2023/11/18 06:00:39;;;;;;;59.88;27.98;;;6.00;99.90;;;;;;6276716;28;20049;-80
2023/11/18 06:03:42;;;;;;;59.85;26.45;;;5.90;99.90;;;;;;6287551;28;20057;-81
2023/11/18 06:06:44;;;;;;;56.30;26.80;;;5.90;99.90;;;;;;6276009;28;20061;-78
2023/11/18 06:09:46;;;;;;;56.63;26.27;;;6.00;99.90;;;;;;6267174;28;20037;-78
2023/11/18 06:12:48;;;;;;;54.65;28.67;;;6.00;99.90;;;;;;6250808;28;20073;-77
2023/11/18 06:15:51;;;;;;;66.78;29.02;;;5.90;99.90;;;;;;6255189;28;20053;-78
2023/11/18 06:18:54;;;;;;;61.25;29.40;;;6.00;99.90;;;;;;6258137;28;20046;-79
2023/11/18 06:21:56;;;;;;;65.05;25.13;;;5.90;99.90;;;;;;6289725;28;20055;-78
2023/11/18 06:24:58;;;;;;;62.97;25.05;;;5.80;99.90;;;;;;6298188;28;20048;-78
2023/11/18 06:27:59;;;;;;;58.42;26.63;;;5.80;99.90;;;;;;6289106;28;20049;-79
2023/11/18 06:31:02;;;;;;;65.55;28.48;;;5.70;99.90;;;;;;6282396;28;20052;-78
2023/11/18 06:34:04;;;;;;;66.22;26.55;;;5.70;99.90;;;;;;6281192;28;20055;-78
2023/11/18 06:37:07;;;;;;;70.03;31.17;;;5.70;99.90;;;;;;6280482;28;20055;-77
2023/11/18 06:40:16;;;;;;;65.30;28.58;;;5.60;99.90;;;;;;6296775;28;20118;-79
2023/11/18 06:43:18;;;;;;;70.45;29.88;;;5.70;99.90;;;;;;6287283;28;20045;-79
2023/11/18 06:46:22;;;;;;;72.18;31.30;;;5.60;99.90;;;;;;6275115;28;20049;-78
2023/11/18 06:49:25;;;;;;;64.82;29.85;;;5.60;99.90;;;;;;6274585;28;20037;-78
2023/11/18 06:52:28;;;;;;;72.93;29.50;;;5.60;99.90;;;;;;6262796;28;20422;-79
2023/11/18 06:55:29;;;;;;;78.15;29.38;;;5.60;99.90;;;;;;6257982;28;20049;-79
2023/11/18 06:58:31;;;;;;;79.05;35.13;;;5.70;99.90;;;;;;6273516;28;20055;-79
2023/11/18 07:01:35;;;;;;;68.85;30.13;;;5.70;99.90;;;;;;6275022;28;20107;-79
2023/11/18 07:04:38;;;;;;;70.68;31.60;;;5.70;99.90;;;;;;6261290;28;20060;-78
2023/11/18 07:07:40;;;;;;;63.15;30.73;;;5.80;99.90;;;;;;6261227;28;20059;-79
2023/11/18 07:10:41;;;;;;;64.60;28.25;;;5.80;99.90;;;;;;6264366;28;20055;-79
2023/11/18 07:13:43;;;;;;;54.22;26.88;;;5.90;99.90;;;;;;6258623;28;20071;-78
2023/11/18 07:16:46;;;;;;;65.63;25.65;;;6.00;99.90;;;;;;6249186;28;20050;-78
2023/11/18 07:19:49;;;;;;;57.83;27.05;;;6.00;99.90;;;;;;6249032;28;20061;-77
2023/11/18 07:22:51;;;;;;;59.03;25.77;;;6.00;99.90;;;;;;6250050;28;20108;-79
2023/11/18 07:25:53;;;;;;;275.13;118.88;;;6.00;99.90;;;;;;6271631;28;20045;-80
2023/11/18 07:28:55;;;;;;;165.82;76.20;;;6.10;99.90;;;;;;6270053;28;20053;-79
2023/11/18 07:31:59;;;;;;;92.28;42.63;;;6.10;99.90;;;;;;6264301;28;20128;-77
2023/11/18 07:35:01;;;;;;;71.53;31.83;;;6.20;99.90;;;;;;6255421;28;20083;-79
2023/11/18 07:38:02;;;;;;;57.65;25.15;;;6.30;99.90;;;;;;6254135;28;20057;-79
2023/11/18 07:41:08;;;;;;;54.97;24.45;;;6.30;99.90;;;;;;6253722;28;20506;-78
2023/11/18 07:44:12;;;;;;;51.85;23.65;;;6.30;99.90;;;;;;6245386;28;20052;-80
2023/11/18 07:47:16;;;;;;;76.80;26.67;;;6.30;99.90;;;;;;6273084;28;20132;-80
2023/11/18 07:50:19;;;;;;;92.68;25.17;;;6.30;99.90;;;;;;6245244;28;20042;-79
2023/11/18 07:53:21;;;;;;;94.07;27.42;;;6.30;99.90;;;;;;6243476;28;20033;-80
2023/11/18 07:56:23;;;;;;;65.00;23.63;;;6.30;99.90;;;;;;6247713;28;20422;-78
2023/11/18 07:59:24;;;;;;;54.75;21.52;;;6.30;99.90;;;;;;6241993;28;20050;-76
2023/11/18 08:02:27;;;;;;;60.65;21.45;;;6.40;99.90;;;;;;6241765;28;20053;-78
2023/11/18 08:05:31;;;;;;;63.20;23.33;;;6.40;99.90;;;;;;6261358;28;20045;-79
2023/11/18 08:08:33;;;;;;;76.18;26.08;;;6.50;99.90;;;;;;6267058;28;20056;-79
2023/11/18 08:11:35;;;;;;;58.58;21.35;;;6.60;99.90;;;;;;6267151;28;20045;-78
2023/11/18 08:14:37;;;;;;;59.35;24.67;;;6.70;99.90;;;;;;6270430;28;20395;-78
2023/11/18 08:17:40;;;;;;;58.53;23.38;;;6.70;99.90;;;;;;6282061;28;20520;-79
2023/11/18 08:20:43;;;;;;;53.08;24.02;;;6.80;99.90;;;;;;6284392;28;20505;-79
2023/11/18 08:23:45;;;;;;;58.33;28.23;;;6.90;99.90;;;;;;6277853;28;20049;-78
2023/11/18 08:26:47;;;;;;;46.25;24.27;;;7.00;99.90;;;;;;6276547;28;20059;-79
2023/11/18 08:29:49;;;;;;;55.85;22.83;;;7.00;99.90;;;;;;6275034;28;20048;-78
2023/11/18 08:32:52;;;;;;;43.47;20.52;;;7.10;99.90;;;;;;6264844;28;20526;-77
2023/11/18 08:35:54;;;;;;;45.63;19.77;;;7.10;99.90;;;;;;6264379;28;20037;-78
2023/11/18 08:38:57;;;;;;;42.03;20.25;;;7.20;99.90;;;;;;6266885;28;20064;-79
2023/11/18 08:41:59;;;;;;;43.53;18.17;;;7.30;99.90;;;;;;6265976;28;20510;-78
2023/11/18 08:45:00;;;;;;;39.47;17.42;;;7.40;99.90;;;;;;6264171;28;20049;-78
2023/11/18 08:48:07;;;;;;;36.40;17.55;;;7.50;99.90;;;;;;6265039;28;20049;-78
2023/11/18 08:51:09;;;;;;;34.40;17.52;;;7.50;99.90;;;;;;6272660;28;20175;-78
2023/11/18 08:54:22;;;;;;;39.53;17.65;;;7.50;99.90;;;;;;6274523;28;20544;-78
2023/11/18 08:57:25;;;;;;;31.15;15.50;;;7.60;99.90;;;;;;6273662;28;20052;-79
2023/11/18 09:03:53;;;;;;;31.80;16.42;;;7.70;99.90;;;;;;6254139;28;20120;-78
2023/11/18 09:07:00;;;;;;;32.97;18.75;;;7.70;99.90;;;;;;6265520;28;20049;-78
2023/11/18 09:10:01;;;;;;;31.85;18.98;;;7.80;99.90;;;;;;6265078;28;20052;-79
2023/11/18 09:13:03;;;;;;;25.55;15.88;;;7.90;99.90;;;;;;6264434;28;20524;-78
2023/11/18 09:16:08;;;;;;;26.95;15.48;;;7.90;99.90;;;;;;6275903;28;20066;-77
2023/11/18 09:19:11;;;;;;;32.38;16.42;;;8.00;99.90;;;;;;6274921;28;20634;-78
2023/11/18 09:22:14;;;;;;;25.05;14.05;;;8.10;99.90;;;;;;6266625;28;20041;-79
2023/11/18 09:25:17;;;;;;;22.90;13.82;;;8.20;99.90;;;;;;6262742;28;20094;-78
2023/11/18 09:28:19;;;;;;;25.13;14.80;;;8.30;99.90;;;;;;6264957;28;20051;-79
2023/11/18 09:31:21;;;;;;;27.33;15.85;;;8.40;99.90;;;;;;6266598;28;20150;-79
2023/11/18 09:34:33;;;;;;;28.73;15.77;;;8.50;99.90;;;;;;6267049;28;20049;-78
2023/11/18 09:37:34;;;;;;;29.13;22.20;;;8.70;99.90;;;;;;6269613;28;20620;-78
2023/11/18 09:40:43;;;;;;;21.48;14.02;;;8.80;99.90;;;;;;6280772;28;20461;-78
2023/11/18 09:43:46;;;;;;;20.15;13.93;;;8.90;99.90;;;;;;6276166;28;20052;-79
2023/11/18 09:46:57;;;;;;;19.70;13.48;;;9.00;99.90;;;;;;6275119;28;20044;-81
2023/11/18 09:50:04;;;;;;;14.85;11.60;;;9.10;99.90;;;;;;6290293;28;20047;-78
2023/11/18 09:53:11;;;;;;;20.77;10.60;;;9.20;99.90;;;;;;6272288;28;20510;-79
2023/11/18 09:56:26;;;;;;;16.07;10.17;;;9.30;99.90;;;;;;6282670;28;20049;-78
2023/11/18 09:59:34;;;;;;;19.75;12.23;;;9.50;99.90;;;;;;6296458;28;20052;-80
2023/11/18 10:02:39;;;;;;;12.07;10.63;;;9.60;99.90;;;;;;6273509;28;20057;-80
2023/11/18 10:05:43;;;;;;;16.00;10.50;;;9.70;99.90;;;;;;6280752;28;20052;-79
2023/11/18 10:08:45;;;;;;;14.23;8.52;;;9.80;99.90;;;;;;6287548;28;20045;-79
2023/11/18 10:11:49;;;;;;;10.65;8.32;;;9.90;99.90;;;;;;6280992;28;20123;-79
2023/11/18 10:14:52;;;;;;;8.90;7.57;;;10.00;99.90;;;;;;6277283;28;20843;-79
2023/11/18 10:17:59;;;;;;;10.18;8.52;;;10.00;99.90;;;;;;6270959;28;20049;-78
2023/11/18 10:21:03;;;;;;;10.32;6.93;;;10.10;99.90;;;;;;6280251;28;20056;-79
2023/11/18 10:24:10;;;;;;;8.35;7.32;;;10.10;99.90;;;;;;6280872;28;20048;-79
2023/11/18 10:27:12;;;;;;;9.40;7.75;;;10.10;99.90;;;;;;6278427;28;20110;-79
2023/11/18 10:30:18;;;;;;;7.60;6.15;;;10.10;99.90;;;;;;6280850;28;20525;-80
2023/11/18 10:33:21;;;;;;;6.38;5.75;;;10.10;99.90;;;;;;6272388;28;20036;-79
2023/11/18 10:36:25;;;;;;;7.65;5.80;;;10.20;99.90;;;;;;6271373;28;20095;-78
2023/11/18 10:39:31;;;;;;;7.32;5.25;;;10.10;99.90;;;;;;6271971;28;20132;-79
2023/11/18 10:42:32;;;;;;;25.10;22.60;;;10.10;99.90;;;;;;6272323;28;20080;-78
2023/11/18 10:45:34;;;;;;;9.27;8.43;;;10.00;99.90;;;;;;6278043;28;20432;-79
2023/11/18 10:48:38;;;;;;;6.75;4.75;;;10.00;99.90;;;;;;6276113;28;20657;-79
2023/11/18 10:51:41;;;;;;;6.55;4.60;;;9.90;99.90;;;;;;6279069;28;20049;-78
2023/11/18 10:54:54;;;;;;;8.98;5.78;;;9.90;99.90;;;;;;6279764;28;20095;-79
2023/11/18 10:57:55;;;;;;;8.63;5.03;;;9.80;99.90;;;;;;6273389;28;20048;-80
2023/11/18 11:01:00;;;;;;;6.82;4.85;;;9.70;99.90;;;;;;6273537;28;20045;-79
2023/11/18 11:04:04;;;;;;;6.15;5.18;;;9.70;99.90;;;;;;6278079;28;20048;-80
2023/11/18 11:07:07;;;;;;;7.68;5.30;;;9.60;99.90;;;;;;6284954;28;20048;-79
2023/11/18 11:10:10;;;;;;;6.50;4.25;;;9.60;99.90;;;;;;6292098;28;20048;-78
2023/11/18 11:13:15;;;;;;;7.00;5.45;;;9.60;99.90;;;;;;6295339;28;20076;-79
2023/11/18 11:16:20;;;;;;;5.97;4.20;;;9.60;99.90;;;;;;6276843;28;20049;-78
2023/11/18 11:19:26;;;;;;;7.65;4.00;;;9.50;99.90;;;;;;6277759;28;20053;-79
2023/11/18 11:22:37;;;;;;;5.45;4.60;;;9.50;99.90;;;;;;6282627;28;20123;-81
2023/11/18 11:25:58;;;;;;;12.85;4.30;;;9.50;99.90;;;;;;6294305;28;20044;-81
2023/11/18 11:29:09;;;;;;;5.97;5.03;;;9.50;99.90;;;;;;6278621;28;20048;-80
2023/11/18 11:32:19;;;;;;;6.10;5.10;;;9.40;99.90;;;;;;6265944;28;20045;-78
2023/11/18 11:35:28;;;;;;;7.15;4.40;;;9.30;99.90;;;;;;6264861;28;20048;-78
2023/11/18 11:38:34;;;;;;;8.38;4.50;;;9.10;99.90;;;;;;6266768;28;20061;-78
2023/11/18 11:41:39;;;;;;;5.60;4.40;;;9.10;99.90;;;;;;6264454;28;20078;-78
2023/11/18 11:44:42;;;;;;;9.73;4.78;;;9.10;99.90;;;;;;6265693;28;20041;-77
2023/11/18 11:47:46;;;;;;;5.38;4.45;;;9.10;99.90;;;;;;6264267;28;20055;-78
2023/11/18 11:51:03;;;;;;;5.40;4.13;;;9.10;99.90;;;;;;6266343;28;20049;-79
2023/11/18 11:54:15;;;;;;;7.53;4.50;;;9.20;99.90;;;;;;6266701;28;20523;-78
2023/11/18 11:57:17;;;;;;;6.47;4.28;;;9.20;99.90;;;;;;6285559;28;20115;-79
2023/11/18 12:00:19;;;;;;;6.93;4.60;;;9.20;99.90;;;;;;6288205;28;20085;-78
2023/11/18 12:03:23;;;;;;;4.88;4.38;;;9.20;99.90;;;;;;6275351;28;20124;-79
2023/11/18 12:06:27;;;;;;;8.68;6.93;;;9.20;99.90;;;;;;6265099;28;20057;-79
2023/11/18 12:09:37;;;;;;;6.18;4.72;;;9.20;99.90;;;;;;6265404;28;20557;-78
2023/11/18 12:12:42;;;;;;;5.88;3.78;;;9.30;99.90;;;;;;6264419;28;20040;-80
2023/11/18 12:15:54;;;;;;;9.63;4.35;;;9.30;99.90;;;;;;6264680;28;20056;-79
2023/11/18 12:19:25;;;;;;;5.40;3.65;;;9.40;99.90;;;;;;6267320;28;20064;-79
2023/11/18 12:22:30;;;;;;;6.50;4.35;;;9.50;99.90;;;;;;6267280;28;20053;-80
2023/11/18 12:25:36;;;;;;;6.47;4.15;;;9.50;99.90;;;;;;6266905;28;20132;-79
2023/11/18 12:28:45;;;;;;;7.57;5.57;;;9.50;99.90;;;;;;6264434;28;20525;-78
2023/11/18 12:31:47;;;;;;;7.47;4.65;;;9.50;99.90;;;;;;6264437;28;20045;-78
2023/11/18 12:34:53;;;;;;;7.88;3.67;;;9.40;99.90;;;;;;6265394;28;20059;-79
2023/11/18 12:38:29;;;;;;;7.15;4.00;;;9.40;99.90;;;;;;6264925;28;20045;-79
2023/11/18 12:41:38;;;;;;;5.40;3.88;;;9.40;99.90;;;;;;6265392;28;20495;-78
2023/11/18 12:44:53;;;;;;;5.82;4.38;;;9.40;99.90;;;;;;6263694;28;20049;-78
2023/11/18 12:47:58;;;;;;;7.63;3.92;;;9.50;99.90;;;;;;6265672;28;21623;-79
2023/11/18 12:51:00;;;;;;;5.80;3.60;;;9.50;99.90;;;;;;6270210;28;20037;-79
2023/11/18 12:54:06;;;;;;;5.18;3.80;;;9.50;99.90;;;;;;6269576;28;20045;-78
2023/11/18 12:57:10;;;;;;;4.68;3.20;;;9.50;99.90;;;;;;6264408;28;20041;-78
2023/11/18 13:00:17;;;;;;;4.68;4.03;;;9.50;99.90;;;;;;6262372;28;20231;-80
2023/11/18 13:03:20;;;;;;;6.03;3.40;;;9.50;99.90;;;;;;6262319;28;20466;-77
2023/11/18 13:06:28;;;;;;;5.50;4.93;;;9.40;99.90;;;;;;6263307;28;20056;-77
2023/11/18 13:09:32;;;;;;;9.93;3.30;;;9.40;99.90;;;;;;6261563;28;20095;-76
2023/11/18 13:12:36;;;;;;;3.33;3.03;;;9.40;99.90;;;;;;6260172;28;20079;-77
2023/11/18 13:15:37;;;;;;;10.15;4.22;;;9.40;99.90;;;;;;6267322;28;20045;-77
2023/11/18 13:18:44;;;;;;;5.38;4.05;;;9.40;99.90;;;;;;6281430;28;20045;-78
2023/11/18 13:21:45;;;;;;;4.88;4.35;;;9.30;99.90;;;;;;6280973;28;20501;-78
2023/11/18 13:24:49;;;;;;;10.65;5.15;;;9.40;99.90;;;;;;6275876;28;20494;-77
2023/11/18 13:27:54;;;;;;;6.53;5.20;;;9.40;99.90;;;;;;6272814;28;20182;-77
2023/11/18 13:30:56;;;;;;;6.65;4.30;;;9.40;99.90;;;;;;6273745;28;20052;-78
2023/11/18 13:33:58;;;;;;;6.93;4.10;;;9.40;99.90;;;;;;6281369;28;20520;-80
2023/11/18 13:37:01;;;;;;;5.28;4.60;;;9.50;99.90;;;;;;6275089;28;20047;-79
2023/11/18 13:40:05;;;;;;;6.35;4.40;;;9.60;99.90;;;;;;6273062;28;20055;-77
2023/11/18 13:43:08;;;;;;;10.20;5.78;;;9.60;99.90;;;;;;6290142;28;20535;-78
2023/11/18 13:46:14;;;;;;;5.22;4.60;;;9.70;99.90;;;;;;6272567;28;20082;-76
2023/11/18 13:49:15;;;;;;;5.00;3.88;;;9.80;99.90;;;;;;6268290;28;20041;-77
2023/11/18 13:52:18;;;;;;;5.57;3.13;;;9.80;99.90;;;;;;6273849;28;20041;-77
2023/11/18 13:55:25;;;;;;;5.85;3.85;;;9.80;99.90;;;;;;6272689;28;20131;-77
2023/11/18 13:58:29;;;;;;;5.70;3.85;;;9.90;99.90;;;;;;6274365;28;20056;-78
2023/11/18 14:01:31;;;;;;;5.95;4.50;;;9.90;99.90;;;;;;6273251;28;20228;-80
2023/11/18 14:04:34;;;;;;;6.80;3.40;;;9.90;99.90;;;;;;6281116;28;20045;-78
2023/11/18 14:07:39;;;;;;;4.72;3.85;;;9.90;99.90;;;;;;6272616;28;20045;-76
2023/11/18 14:10:41;;;;;;;6.00;3.35;;;10.00;99.90;;;;;;6274513;28;20049;-78
2023/11/18 14:13:44;;;;;;;6.25;3.35;;;10.10;99.90;;;;;;6274081;28;20044;-78
2023/11/18 14:16:45;;;;;;;7.85;4.30;;;10.10;99.90;;;;;;6274452;28;20044;-78
2023/11/18 14:19:47;;;;;;;9.02;4.93;;;10.10;99.90;;;;;;6288147;28;20040;-79
2023/11/18 14:22:49;;;;;;;4.55;4.15;;;10.10;99.90;;;;;;6299422;28;20051;-78
2023/11/18 14:25:51;;;;;;;9.40;5.15;;;10.00;99.90;;;;;;6298707;28;20498;-79
2023/11/18 14:28:55;;;;;;;4.65;3.40;;;10.00;99.90;;;;;;6289957;22;20049;-77
2023/11/18 14:31:57;;;;;;;5.55;3.90;;;10.00;99.90;;;;;;6231377;28;20555;-77
2023/11/18 14:34:59;;;;;;;7.13;3.58;;;10.00;99.90;;;;;;6245186;28;20052;-78
2023/11/18 14:38:01;;;;;;;5.07;3.65;;;10.00;99.90;;;;;;6243982;28;20390;-78
2023/11/18 14:41:04;;;;;;;5.78;3.53;;;9.90;99.90;;;;;;6240611;28;20045;-78
2023/11/18 14:44:09;;;;;;;6.65;3.22;;;9.90;99.90;;;;;;6246281;28;20123;-77
2023/11/18 14:47:11;;;;;;;11.60;3.33;;;9.90;99.90;;;;;;6245319;28;20498;-78
2023/11/18 14:50:17;;;;;;;6.68;2.95;;;9.90;99.90;;;;;;6247510;28;20461;-78
2023/11/18 14:53:19;;;;;;;6.88;3.85;;;9.80;99.90;;;;;;6245615;28;20132;-77
2023/11/18 14:56:21;;;;;;;6.55;3.75;;;9.80;99.90;;;;;;6244082;28;20057;-77
2023/11/18 14:59:24;;;;;;;5.68;4.43;;;9.80;99.90;;;;;;6244616;28;20127;-76
2023/11/18 15:02:26;;;;;;;6.78;4.22;;;9.80;99.90;;;;;;6245239;28;20053;-77
2023/11/18 15:05:28;;;;;;;5.82;3.38;;;9.70;99.90;;;;;;6247772;28;20049;-79
2023/11/18 15:08:30;;;;;;;5.88;4.20;;;9.70;99.90;;;;;;6246964;28;20057;-77
2023/11/18 15:11:33;;;;;;;5.38;3.45;;;9.70;99.90;;;;;;6243297;28;20053;-77
2023/11/18 15:14:36;;;;;;;4.28;3.78;;;9.70;99.90;;;;;;6245794;28;20049;-77
2023/11/18 15:17:39;;;;;;;5.55;3.53;;;9.70;99.90;;;;;;6244861;28;20049;-78
2023/11/18 15:20:42;;;;;;;8.40;5.43;;;9.60;99.90;;;;;;6243693;28;20091;-77
2023/11/18 15:23:45;;;;;;;22.95;13.25;;;9.60;99.90;;;;;;6246667;28;20052;-77
2023/11/18 15:26:47;;;;;;;7.72;6.40;;;9.60;99.90;;;;;;6246547;28;20049;-77
2023/11/18 15:29:50;;;;;;;5.95;3.35;;;9.50;99.90;;;;;;6244731;28;20049;-77
2023/11/18 15:32:52;;;;;;;4.40;3.78;;;9.50;99.90;;;;;;6246446;28;20064;-78
2023/11/18 15:35:54;;;;;;;7.65;6.15;;;9.50;99.90;;;;;;6251182;28;20053;-77
2023/11/18 15:39:03;;;;;;;14.50;10.15;;;9.40;99.90;;;;;;6242099;28;20048;-77
2023/11/18 15:42:05;;;;;;;8.43;7.70;;;9.40;99.90;;;;;;6246026;28;20453;-77
2023/11/18 15:45:12;;;;;;;8.70;5.40;;;9.40;99.90;;;;;;6246096;28;20511;-76
2023/11/18 15:48:14;;;;;;;7.03;6.32;;;9.40;99.90;;;;;;6244793;28;20045;-75
2023/11/18 15:51:16;;;;;;;13.05;7.07;;;9.30;99.90;;;;;;6244839;28;20419;-76
2023/11/18 15:54:18;;;;;;;9.77;6.68;;;9.30;99.90;;;;;;6248237;28;20571;-77